Time;durP1;ratioP1;P1;durP2;ratioP2;P2;SDS_P1;SDS_P2;PMS_P1;PMS_P2;Temp;Humidity;BMP_temperature;BMP_pressure;BME280_temperature;BME280_humidity;BME280_pressure;Samples;Min_cycle;Max_cycle;Signal;HPM_P1;HPM_P2
2022/08/02 00:00:46;;;;;;;7.10;1.70;;;14.20;99.90;;;;;;5072635;28;20037;-73
2022/08/02 00:03:11;;;;;;;6.03;1.95;;;14.20;99.90;;;;;;5071444;28;20041;-73
2022/08/02 00:05:37;;;;;;;7.80;1.88;;;14.20;99.90;;;;;;5054670;28;20049;-72
2022/08/02 00:08:02;;;;;;;5.47;1.67;;;14.20;99.90;;;;;;5071652;28;20033;-72
2022/08/02 00:10:28;;;;;;;6.90;1.70;;;14.10;99.90;;;;;;5054687;28;20036;-73
2022/08/02 00:12:54;;;;;;;6.97;1.70;;;14.10;99.90;;;;;;5071280;28;20386;-73
2022/08/02 00:15:20;;;;;;;7.88;2.08;;;14.10;99.90;;;;;;5071184;28;20044;-73
2022/08/02 00:17:45;;;;;;;8.38;2.20;;;14.00;99.90;;;;;;5071533;28;20044;-73
2022/08/02 00:20:11;;;;;;;6.55;2.05;;;14.00;99.90;;;;;;5072388;28;20517;-73
2022/08/02 00:22:37;;;;;;;4.93;1.80;;;14.00;99.90;;;;;;5071225;28;20043;-73
2022/08/02 00:25:03;;;;;;;7.05;1.75;;;14.00;99.90;;;;;;5071195;28;20045;-73
2022/08/02 00:27:29;;;;;;;5.75;1.60;;;14.00;99.90;;;;;;5071436;28;20037;-73
2022/08/02 00:29:55;;;;;;;8.90;2.00;;;14.10;99.90;;;;;;5071141;28;20048;-73
2022/08/02 00:32:21;;;;;;;6.07;1.83;;;14.10;99.90;;;;;;5071186;28;20033;-74
2022/08/02 00:34:47;;;;;;;6.57;2.17;;;14.10;99.90;;;;;;5074893;28;20038;-73
2022/08/02 00:37:13;;;;;;;10.90;2.42;;;14.20;99.90;;;;;;5074613;28;20119;-72
2022/08/02 00:39:38;;;;;;;8.80;2.28;;;14.20;99.90;;;;;;5057944;28;20116;-73
2022/08/02 00:42:04;;;;;;;9.80;2.40;;;14.30;99.90;;;;;;5074515;28;20131;-73
2022/08/02 00:44:30;;;;;;;9.80;3.20;;;14.30;99.90;;;;;;5074413;28;20040;-73
2022/08/02 00:46:56;;;;;;;10.95;3.17;;;14.30;99.90;;;;;;5074507;28;20048;-72
2022/08/02 00:49:21;;;;;;;9.27;2.55;;;14.30;99.90;;;;;;5074402;28;20033;-72
2022/08/02 00:51:47;;;;;;;5.75;1.98;;;14.40;99.90;;;;;;5074364;28;20043;-73
2022/08/02 00:54:13;;;;;;;8.70;2.83;;;14.30;99.90;;;;;;5074331;28;20048;-73
2022/08/02 00:56:39;;;;;;;9.27;2.33;;;14.30;99.90;;;;;;5075786;28;20501;-72
2022/08/02 00:59:05;;;;;;;8.38;2.70;;;14.30;99.90;;;;;;5057817;28;20037;-73
2022/08/02 01:01:40;;;;;;;13.05;2.75;;;14.30;99.90;;;;;;5074179;28;20558;-74
2022/08/02 01:04:08;;;;;;;7.22;2.30;;;14.40;99.90;;;;;;5074248;28;20072;-73
2022/08/02 01:06:33;;;;;;;9.32;2.45;;;14.30;99.90;;;;;;5074027;28;20052;-72
2022/08/02 01:09:00;;;;;;;11.88;2.50;;;14.30;99.90;;;;;;5074042;28;20033;-72
2022/08/02 01:11:29;;;;;;;8.75;2.28;;;14.30;99.90;;;;;;5074300;28;20089;-73
2022/08/02 01:14:02;;;;;;;7.78;2.53;;;14.30;99.90;;;;;;5074007;28;20072;-73
2022/08/02 01:16:32;;;;;;;10.50;2.88;;;14.30;99.90;;;;;;5073959;28;20043;-72
2022/08/02 01:19:33;;;;;;;8.93;2.20;;;14.30;99.90;;;;;;5073907;28;20047;-72
2022/08/02 01:22:37;;;;;;;7.10;2.35;;;14.30;99.90;;;;;;5071668;28;20114;-73
2022/08/02 01:25:28;;;;;;;8.13;2.75;;;14.20;99.90;;;;;;5057068;28;20040;-73
2022/08/02 01:28:29;;;;;;;9.82;2.60;;;14.20;99.90;;;;;;5073764;28;20497;-72
2022/08/02 01:31:20;;;;;;;9.43;2.47;;;14.10;99.90;;;;;;5057047;28;20044;-73
2022/08/02 01:33:58;;;;;;;8.18;2.83;;;14.10;99.90;;;;;;5074115;28;20044;-73
2022/08/02 01:36:30;;;;;;;11.80;2.45;;;14.10;99.90;;;;;;5073788;28;20043;-72
2022/08/02 01:38:57;;;;;;;14.40;2.80;;;14.00;99.90;;;;;;5073589;28;20040;-73
2022/08/02 01:41:26;;;;;;;6.40;2.78;;;14.00;99.90;;;;;;5073345;28;20447;-73
2022/08/02 01:43:56;;;;;;;10.35;3.30;;;14.10;99.90;;;;;;5073540;28;20043;-73
2022/08/02 01:46:23;;;;;;;10.13;2.70;;;14.00;99.90;;;;;;5073521;28;20109;-72
2022/08/02 01:48:50;;;;;;;9.55;2.47;;;14.00;99.90;;;;;;5073340;28;20032;-73
2022/08/02 01:51:18;;;;;;;11.13;2.90;;;14.00;99.90;;;;;;5073277;28;20165;-73
2022/08/02 01:53:48;;;;;;;10.43;2.88;;;14.00;99.90;;;;;;5073466;28;20052;-73
2022/08/02 01:56:16;;;;;;;10.02;2.88;;;14.00;99.90;;;;;;5073319;28;20501;-72
2022/08/02 01:58:43;;;;;;;7.30;2.60;;;14.00;99.90;;;;;;5073126;28;20132;-73
2022/08/02 02:01:10;;;;;;;11.68;3.00;;;13.90;99.90;;;;;;5073015;28;20087;-73
2022/08/02 02:03:39;;;;;;;8.52;2.72;;;14.00;99.90;;;;;;5073256;28;20036;-73
2022/08/02 02:06:07;;;;;;;13.13;3.40;;;14.00;99.90;;;;;;5073163;28;20042;-73
2022/08/02 02:08:39;;;;;;;10.32;2.95;;;14.00;99.90;;;;;;5072851;28;20120;-73
2022/08/02 02:11:05;;;;;;;11.43;3.03;;;14.00;99.90;;;;;;5056258;28;20048;-73
2022/08/02 02:13:31;;;;;;;13.15;3.40;;;13.90;99.90;;;;;;5056347;28;20488;-73
2022/08/02 02:16:01;;;;;;;13.63;3.03;;;14.00;99.90;;;;;;5072772;28;20090;-72
2022/08/02 02:18:29;;;;;;;11.63;3.20;;;14.00;99.90;;;;;;5056384;28;20040;-72
2022/08/02 02:20:55;;;;;;;9.70;3.20;;;14.00;99.90;;;;;;5055799;28;20033;-73
2022/08/02 02:23:22;;;;;;;11.13;2.90;;;14.00;99.90;;;;;;5072617;28;20040;-73
2022/08/02 02:25:48;;;;;;;10.43;3.20;;;13.90;99.90;;;;;;5056129;28;20127;-72
2022/08/02 02:28:27;;;;;;;8.57;3.13;;;14.00;99.90;;;;;;5072488;28;20033;-73
2022/08/02 02:31:08;;;;;;;8.80;3.05;;;14.00;99.90;;;;;;5072759;28;20055;-73
2022/08/02 02:33:39;;;;;;;15.25;3.38;;;13.90;99.90;;;;;;5072716;28;20110;-73
2022/08/02 02:36:07;;;;;;;13.50;3.25;;;13.90;99.90;;;;;;5072338;28;20082;-72
2022/08/02 02:38:33;;;;;;;10.13;3.15;;;13.90;99.90;;;;;;5055701;28;20040;-73
2022/08/02 02:41:04;;;;;;;9.02;3.17;;;13.90;99.90;;;;;;5072400;28;20036;-73
2022/08/02 02:43:32;;;;;;;12.25;3.58;;;13.90;99.90;;;;;;5072267;28;20047;-73
2022/08/02 02:46:00;;;;;;;12.05;3.70;;;13.90;99.90;;;;;;5072115;28;20044;-72
2022/08/02 02:48:27;;;;;;;11.50;3.67;;;13.80;99.90;;;;;;5072165;28;20037;-73
2022/08/02 02:50:53;;;;;;;12.27;3.58;;;13.80;99.90;;;;;;5072207;28;20116;-73
2022/08/02 02:53:21;;;;;;;8.35;3.38;;;13.90;99.90;;;;;;5072411;28;20170;-73
2022/08/02 02:55:47;;;;;;;11.55;4.00;;;13.90;99.90;;;;;;5071559;28;20041;-72
2022/08/02 02:58:14;;;;;;;18.48;4.40;;;13.90;99.90;;;;;;5055672;28;20036;-73
2022/08/02 03:03:25;;;;;;;13.73;3.78;;;13.90;99.90;;;;;;5072049;28;20045;-73
2022/08/02 03:05:50;;;;;;;10.88;3.92;;;13.80;99.90;;;;;;5071909;28;20036;-73
2022/08/02 03:08:16;;;;;;;11.68;4.05;;;13.90;99.90;;;;;;5071944;28;20039;-73
2022/08/02 03:10:44;;;;;;;12.57;4.43;;;13.80;99.90;;;;;;5071906;28;20140;-74
2022/08/02 03:13:11;;;;;;;8.80;3.72;;;13.80;99.90;;;;;;5072150;28;20382;-74
2022/08/02 03:15:38;;;;;;;15.68;4.07;;;13.80;99.90;;;;;;5071776;28;20039;-74
2022/08/02 03:18:06;;;;;;;10.23;3.65;;;13.80;99.90;;;;;;5055429;28;20048;-73
2022/08/02 03:20:32;;;;;;;9.13;3.78;;;13.80;99.90;;;;;;5071624;28;20431;-72
2022/08/02 03:22:57;;;;;;;8.88;3.20;;;13.80;99.90;;;;;;5072354;28;20124;-73
2022/08/02 03:25:23;;;;;;;8.95;3.78;;;13.80;99.90;;;;;;5071756;28;20386;-74
2022/08/02 03:27:49;;;;;;;10.98;4.45;;;13.80;99.90;;;;;;5055047;28;20106;-72
2022/08/02 03:30:14;;;;;;;11.43;3.72;;;13.80;99.90;;;;;;5071765;28;20041;-73
2022/08/02 03:32:43;;;;;;;9.35;4.07;;;13.70;99.90;;;;;;5071691;28;20044;-73
2022/08/02 03:35:11;;;;;;;11.57;3.60;;;13.70;99.90;;;;;;5071680;28;20044;-73
2022/08/02 03:37:37;;;;;;;7.13;3.53;;;13.70;99.90;;;;;;5071879;28;20041;-72
2022/08/02 03:40:07;;;;;;;8.45;3.50;;;13.70;99.90;;;;;;5071565;28;20048;-73
2022/08/02 03:42:32;;;;;;;10.82;3.47;;;13.70;99.90;;;;;;5071593;28;20047;-73
2022/08/02 03:45:01;;;;;;;13.25;4.30;;;13.70;99.90;;;;;;5071791;28;20037;-73
2022/08/02 03:47:28;;;;;;;9.55;3.92;;;13.70;99.90;;;;;;5071891;28;20083;-73
2022/08/02 03:49:55;;;;;;;9.43;3.40;;;13.70;99.90;;;;;;5071508;28;20481;-73
2022/08/02 03:52:22;;;;;;;8.52;4.13;;;13.80;99.90;;;;;;5071795;28;20044;-73
2022/08/02 03:54:48;;;;;;;10.95;3.75;;;13.80;99.90;;;;;;5055009;28;20095;-72
2022/08/02 03:57:14;;;;;;;10.95;3.78;;;13.70;99.90;;;;;;5071523;28;20505;-73
2022/08/02 03:59:42;;;;;;;12.48;4.43;;;13.70;99.90;;;;;;5071464;28;20154;-72
2022/08/02 04:02:07;;;;;;;12.55;4.22;;;13.70;99.90;;;;;;5071325;28;20417;-74
2022/08/02 04:04:33;;;;;;;11.55;4.22;;;13.80;99.90;;;;;;5071589;28;20036;-73
2022/08/02 04:06:58;;;;;;;12.13;4.18;;;13.80;99.90;;;;;;5071342;28;20033;-73
2022/08/02 04:09:25;;;;;;;12.13;3.95;;;13.70;99.90;;;;;;5074615;28;20067;-74
2022/08/02 04:11:50;;;;;;;13.32;4.55;;;13.80;99.90;;;;;;5075141;28;20048;-73
2022/08/02 04:14:16;;;;;;;10.73;4.00;;;13.80;99.90;;;;;;5075108;28;20098;-73
2022/08/02 04:16:46;;;;;;;9.27;4.03;;;13.80;99.90;;;;;;5074977;28;20047;-73
2022/08/02 04:19:19;;;;;;;11.52;4.20;;;13.80;99.90;;;;;;5075059;28;20036;-72
2022/08/02 04:21:46;;;;;;;;;;;13.90;99.90;;;;;;5058711;28;20486;-73
2022/08/02 04:24:15;;;;;;;12.80;4.35;;;13.80;99.90;;;;;;5074941;28;19916;-73
2022/08/02 04:26:43;;;;;;;12.15;4.70;;;13.80;99.90;;;;;;5074830;28;20042;-73
2022/08/02 04:29:11;;;;;;;10.52;4.45;;;13.90;99.90;;;;;;5074827;28;20090;-73
2022/08/02 04:31:37;;;;;;;12.13;4.13;;;13.90;99.90;;;;;;5074784;28;20554;-72
2022/08/02 04:34:03;;;;;;;10.00;3.85;;;13.90;99.90;;;;;;5074986;28;20037;-73
2022/08/02 04:36:29;;;;;;;14.45;4.97;;;13.90;99.90;;;;;;5074636;28;20055;-73
2022/08/02 04:38:54;;;;;;;10.75;4.20;;;13.90;99.90;;;;;;5074647;28;20037;-73
2022/08/02 04:41:20;;;;;;;14.27;4.38;;;13.90;99.90;;;;;;5074547;28;20123;-73
2022/08/02 04:43:46;;;;;;;13.55;4.72;;;14.00;99.90;;;;;;5074897;28;20121;-73
2022/08/02 04:46:11;;;;;;;10.27;4.28;;;14.00;99.90;;;;;;5057865;28;20039;-73
2022/08/02 04:48:37;;;;;;;11.07;4.55;;;14.00;99.90;;;;;;5074524;28;20040;-72
2022/08/02 04:51:02;;;;;;;11.57;4.40;;;14.10;99.90;;;;;;5074469;28;20045;-73
2022/08/02 04:53:28;;;;;;;12.07;4.53;;;14.00;99.90;;;;;;5074710;28;20044;-73
2022/08/02 04:55:54;;;;;;;15.38;4.47;;;14.00;99.90;;;;;;5074335;28;20416;-73
2022/08/02 04:58:19;;;;;;;10.50;4.38;;;14.10;99.90;;;;;;5074314;28;20128;-73
2022/08/02 05:00:45;;;;;;;11.82;4.15;;;14.10;99.90;;;;;;5074211;28;20051;-73
2022/08/02 05:03:10;;;;;;;13.27;4.50;;;14.20;99.90;;;;;;5075761;28;20041;-73
2022/08/02 05:05:37;;;;;;;11.23;4.18;;;14.10;99.90;;;;;;5074111;28;20041;-73
2022/08/02 05:08:03;;;;;;;9.15;4.38;;;14.20;99.90;;;;;;5074151;28;20086;-72
2022/08/02 05:10:28;;;;;;;10.90;4.65;;;14.20;99.90;;;;;;5074095;28;20040;-73
2022/08/02 05:12:54;;;;;;;14.68;4.88;;;14.20;99.90;;;;;;5074025;28;20068;-73
2022/08/02 05:15:20;;;;;;;14.05;4.63;;;14.30;99.90;;;;;;5073902;28;20088;-72
2022/08/02 05:17:47;;;;;;;10.65;4.60;;;14.30;99.90;;;;;;5073956;28;20089;-72
2022/08/02 05:20:13;;;;;;;12.43;4.20;;;14.40;99.90;;;;;;5056563;28;20086;-72
2022/08/02 05:22:39;;;;;;;12.27;4.68;;;14.40;99.90;;;;;;5073863;28;20119;-73
2022/08/02 05:25:05;;;;;;;12.05;4.70;;;14.50;99.90;;;;;;5057077;28;20111;-72
2022/08/02 05:27:32;;;;;;;10.32;4.95;;;14.50;99.90;;;;;;5073957;28;20037;-72
2022/08/02 05:29:58;;;;;;;8.77;3.97;;;14.50;99.90;;;;;;5073772;28;20079;-73
2022/08/02 05:32:24;;;;;;;11.40;4.57;;;14.60;99.90;;;;;;5073649;28;20166;-73
2022/08/02 05:34:49;;;;;;;15.35;4.88;;;14.60;99.90;;;;;;5073571;28;20094;-72
2022/08/02 05:37:15;;;;;;;9.20;4.60;;;14.60;99.90;;;;;;5073783;28;20040;-72
2022/08/02 05:39:41;;;;;;;12.60;4.68;;;14.60;99.90;;;;;;5073816;28;20084;-73
2022/08/02 05:42:06;;;;;;;11.68;4.85;;;14.70;99.90;;;;;;5073513;28;20405;-73
2022/08/02 05:44:32;;;;;;;10.13;4.40;;;14.70;99.90;;;;;;5056703;28;20473;-73
2022/08/02 05:46:57;;;;;;;12.63;5.00;;;14.80;99.90;;;;;;5073418;28;20119;-73
2022/08/02 05:49:23;;;;;;;9.65;4.28;;;14.80;99.90;;;;;;5073283;28;20098;-72
2022/08/02 05:52:02;;;;;;;11.10;4.35;;;14.90;99.90;;;;;;5073435;28;20044;-73
2022/08/02 05:54:38;;;;;;;9.63;4.65;;;14.90;99.90;;;;;;5073319;28;20048;-73
2022/08/02 05:57:07;;;;;;;16.90;4.65;;;15.00;99.90;;;;;;5073283;28;20102;-72
2022/08/02 06:00:25;;;;;;;11.38;4.75;;;15.00;99.90;;;;;;5073366;28;20505;-73
2022/08/02 06:03:02;;;;;;;11.68;4.55;;;15.10;99.90;;;;;;5035692;28;20040;-73
2022/08/02 06:05:33;;;;;;;10.80;4.75;;;15.10;99.90;;;;;;5068485;28;20400;-72
2022/08/02 06:07:59;;;;;;;8.82;4.07;;;15.20;99.90;;;;;;5073148;28;20064;-73
2022/08/02 06:10:27;;;;;;;10.23;4.43;;;15.30;99.90;;;;;;5072840;28;20133;-73
2022/08/02 06:13:02;;;;;;;12.25;3.75;;;15.40;99.90;;;;;;5072805;28;20041;-73
2022/08/02 06:15:29;;;;;;;10.98;3.75;;;15.50;99.90;;;;;;5072761;28;20079;-72
2022/08/02 06:17:56;;;;;;;11.23;4.10;;;15.60;99.90;;;;;;5072963;28;20036;-73
2022/08/02 06:20:22;;;;;;;9.70;3.40;;;15.70;99.90;;;;;;5072738;28;20048;-72
2022/08/02 06:22:49;;;;;;;10.85;4.00;;;15.80;99.90;;;;;;5056017;28;20040;-73
2022/08/02 06:25:15;;;;;;;14.20;3.97;;;15.90;99.90;;;;;;5072505;28;20443;-72
2022/08/02 06:27:41;;;;;;;7.78;3.90;;;15.90;99.90;;;;;;5072939;28;20040;-72
2022/08/02 06:30:08;;;;;;;9.10;3.67;;;16.00;99.90;;;;;;5072247;28;20041;-72
2022/08/02 06:32:34;;;;;;;10.55;4.65;;;16.20;99.90;;;;;;5073327;28;20032;-73
2022/08/02 06:35:02;;;;;;;8.07;3.65;;;16.30;99.90;;;;;;5072521;28;20047;-72
2022/08/02 06:37:42;;;;;;;6.95;4.00;;;16.40;99.90;;;;;;5072664;28;20037;-73
2022/08/02 06:40:31;;;;;;;10.98;3.90;;;16.50;99.90;;;;;;5072571;28;20040;-74
2022/08/02 06:43:09;;;;;;;9.52;4.10;;;16.60;99.90;;;;;;5072387;28;20488;-73
2022/08/02 06:45:36;;;;;;;11.20;4.15;;;16.70;99.90;;;;;;5055629;28;20125;-73
2022/08/02 06:48:02;;;;;;;10.20;3.95;;;16.70;99.90;;;;;;5072468;28;20032;-74
2022/08/02 06:50:29;;;;;;;8.82;3.53;;;16.80;99.90;;;;;;5072178;28;20496;-73
2022/08/02 06:52:54;;;;;;;9.95;3.85;;;16.90;99.90;;;;;;5072196;28;20043;-74
2022/08/02 06:55:20;;;;;;;6.50;3.47;;;17.00;99.90;;;;;;5072085;28;20048;-73
2022/08/02 06:57:46;;;;;;;9.15;3.40;;;17.00;99.90;;;;;;5072083;28;20041;-73
2022/08/02 07:00:11;;;;;;;12.85;3.72;;;17.10;99.90;;;;;;5072290;28;20071;-74
2022/08/02 07:02:38;;;;;;;9.73;3.30;;;17.20;99.90;;;;;;5072053;28;20405;-74
2022/08/02 07:05:05;;;;;;;11.45;3.95;;;17.30;99.90;;;;;;5071968;28;20072;-74
2022/08/02 07:07:31;;;;;;;10.80;2.92;;;17.40;99.90;;;;;;5055303;28;20040;-73
2022/08/02 07:09:58;;;;;;;6.82;3.08;;;17.50;99.90;;;;;;5072250;28;20036;-73
2022/08/02 07:12:23;;;;;;;9.35;3.22;;;17.70;99.90;;;;;;5072223;28;20044;-73
2022/08/02 07:14:49;;;;;;;8.02;2.72;;;17.80;99.90;;;;;;5071846;28;20520;-73
2022/08/02 07:17:14;;;;;;;7.65;2.40;;;18.00;99.90;;;;;;5072109;28;20048;-73
2022/08/02 07:19:40;;;;;;;11.90;3.30;;;18.10;99.90;;;;;;5071731;28;20527;-73
2022/08/02 07:22:06;;;;;;;7.63;2.42;;;18.20;99.90;;;;;;5055120;28;20037;-74
2022/08/02 07:24:31;;;;;;;8.75;2.78;;;18.20;99.90;;;;;;5071753;28;20036;-74
2022/08/02 07:26:57;;;;;;;9.80;3.00;;;18.20;99.90;;;;;;5072046;28;20049;-72
2022/08/02 07:29:23;;;;;;;6.35;2.50;;;18.20;99.90;;;;;;5071766;28;20040;-72
2022/08/02 07:31:50;;;;;;;9.80;2.35;;;18.20;99.90;;;;;;5071681;28;20131;-72
2022/08/02 07:34:15;;;;;;;6.45;2.40;;;18.20;99.90;;;;;;5071712;28;20074;-72
2022/08/02 07:36:41;;;;;;;12.65;2.85;;;18.30;99.90;;;;;;5054941;28;20052;-72
2022/08/02 07:39:07;;;;;;;8.68;2.38;;;18.40;99.90;;;;;;5071917;28;20071;-72
2022/08/02 07:41:32;;;;;;;8.43;2.60;;;18.50;99.90;;;;;;5071844;28;20041;-72
2022/08/02 07:43:58;;;;;;;6.32;2.05;;;18.70;99.90;;;;;;5075723;28;20039;-72
2022/08/02 07:46:24;;;;;;;10.13;2.05;;;18.90;99.90;;;;;;5075596;28;20044;-72
2022/08/02 07:48:52;;;;;;;6.80;1.80;;;19.00;99.90;;;;;;5075647;28;20036;-72
2022/08/02 07:51:18;;;;;;;8.63;1.73;;;19.20;99.90;;;;;;5075569;28;20055;-72
2022/08/02 07:53:43;;;;;;;6.22;1.52;;;19.30;99.90;;;;;;5075549;28;20040;-72
2022/08/02 07:56:09;;;;;;;10.20;1.65;;;19.40;99.90;;;;;;5076957;28;20041;-72
2022/08/02 07:58:34;;;;;;;7.55;1.70;;;19.50;99.90;;;;;;5075439;28;20036;-72
2022/08/02 08:01:00;;;;;;;6.72;1.60;;;19.70;99.90;;;;;;5076529;28;20044;-72
2022/08/02 08:03:26;;;;;;;7.03;1.50;;;19.80;99.90;;;;;;5075370;28;20037;-72
2022/08/02 08:05:53;;;;;;;6.28;1.80;;;19.90;99.90;;;;;;5075254;28;20090;-72
2022/08/02 08:08:19;;;;;;;7.13;1.70;;;20.10;99.90;;;;;;5075256;28;20531;-72
2022/08/02 08:10:45;;;;;;;6.28;1.73;;;20.20;99.90;;;;;;5075183;28;20075;-72
2022/08/02 08:13:11;;;;;;;6.80;1.80;;;20.40;99.90;;;;;;5058527;28;20044;-72
2022/08/02 08:15:36;;;;;;;4.25;1.50;;;20.50;99.90;;;;;;5075329;28;20070;-72
2022/08/02 08:18:02;;;;;;;6.40;1.80;;;20.60;99.90;;;;;;5075063;28;20048;-72
2022/08/02 08:20:27;;;;;;;8.68;1.95;;;20.80;99.90;;;;;;5075074;28;20044;-72
2022/08/02 08:22:53;;;;;;;6.68;1.70;;;20.90;99.90;;;;;;5074982;28;20093;-72
2022/08/02 08:25:19;;;;;;;5.57;1.48;;;21.10;99.90;;;;;;5076378;28;20033;-72
2022/08/02 08:27:49;;;;;;;5.10;1.40;;;21.30;99.90;;;;;;5075026;28;20036;-71
2022/08/02 08:30:15;;;;;;;6.95;1.20;;;21.50;99.90;;;;;;5076627;28;20078;-70
2022/08/02 08:32:41;;;;;;;7.35;1.20;;;21.60;99.90;;;;;;5076294;28;20494;-72
2022/08/02 08:35:07;;;;;;;5.88;1.77;;;21.80;99.90;;;;;;5074594;28;20040;-73
2022/08/02 08:37:34;;;;;;;4.15;1.40;;;21.80;99.90;;;;;;5074726;28;20110;-73
2022/08/02 08:40:00;;;;;;;8.60;1.30;;;21.90;99.90;;;;;;5074691;28;20044;-73
2022/08/02 08:42:26;;;;;;;4.05;1.70;;;21.90;99.90;;;;;;5074565;28;20051;-73
2022/08/02 08:44:53;;;;;;;5.40;1.33;;;22.00;99.90;;;;;;5074526;28;20120;-73
2022/08/02 08:47:21;;;;;;;4.43;1.10;;;22.20;99.90;;;;;;5057853;28;20072;-73
2022/08/02 08:49:50;;;;;;;7.70;1.33;;;22.30;98.90;;;;;;5074498;28;20116;-73
2022/08/02 08:52:18;;;;;;;3.85;1.02;;;22.50;97.60;;;;;;5074699;28;20045;-73
2022/08/02 08:54:47;;;;;;;4.60;1.20;;;22.60;96.60;;;;;;5073750;28;20048;-73
2022/08/02 08:57:14;;;;;;;7.50;1.17;;;22.80;93.80;;;;;;5074328;28;20049;-73
2022/08/02 08:59:39;;;;;;;7.70;1.50;;;22.90;93.00;;;;;;5074559;28;20132;-73
2022/08/02 09:02:06;;;;;;;5.47;1.30;;;23.00;93.50;;;;;;5074197;28;20123;-73
2022/08/02 09:04:31;;;;;;;2.13;1.00;;;23.10;93.40;;;;;;5074370;28;20054;-73
2022/08/02 09:06:57;;;;;;;6.03;1.35;;;23.30;93.10;;;;;;5074153;28;20400;-73
2022/08/02 09:09:23;;;;;;;5.57;1.35;;;23.40;92.60;;;;;;5074132;28;20045;-73
2022/08/02 09:11:49;;;;;;;6.00;1.40;;;23.60;87.60;;;;;;5074123;28;20044;-73
2022/08/02 09:14:26;;;;;;;3.58;1.10;;;23.70;88.00;;;;;;5074016;28;20089;-73
2022/08/02 09:16:52;;;;;;;3.53;1.30;;;23.90;83.20;;;;;;5075181;28;20535;-73
2022/08/02 09:19:20;;;;;;;4.97;1.20;;;24.10;88.10;;;;;;5057100;28;20044;-73
2022/08/02 09:21:58;;;;;;;4.10;1.00;;;24.20;87.80;;;;;;5073961;28;20044;-73
2022/08/02 09:24:24;;;;;;;4.30;1.25;;;24.40;86.40;;;;;;5074154;28;20044;-73
2022/08/02 09:26:50;;;;;;;5.53;1.30;;;24.50;82.60;;;;;;5073684;28;20508;-73
2022/08/02 09:29:18;;;;;;;3.38;1.20;;;24.60;80.30;;;;;;5074019;28;20056;-73
2022/08/02 09:31:43;;;;;;;6.05;1.33;;;24.70;79.30;;;;;;5073693;28;20493;-73
2022/08/02 09:34:10;;;;;;;5.10;1.27;;;24.90;80.20;;;;;;5073768;28;20048;-74
2022/08/02 09:36:41;;;;;;;7.28;1.40;;;25.00;77.30;;;;;;5074876;28;20037;-73
2022/08/02 09:39:13;;;;;;;5.97;1.30;;;25.10;76.50;;;;;;5073572;28;20048;-73
2022/08/02 09:41:41;;;;;;;5.67;1.50;;;25.00;75.70;;;;;;5056967;28;20402;-73
2022/08/02 09:44:09;;;;;;;4.15;1.65;;;25.00;77.50;;;;;;5073728;28;20040;-74
2022/08/02 09:46:37;;;;;;;8.80;2.22;;;25.00;77.20;;;;;;5073324;28;20028;-74
2022/08/02 09:49:13;;;;;;;6.78;2.20;;;25.00;78.50;;;;;;5073328;28;20481;-74
2022/08/02 09:51:46;;;;;;;8.90;1.90;;;25.00;80.60;;;;;;5073344;28;20061;-74
2022/08/02 09:54:19;;;;;;;7.15;1.85;;;25.10;82.20;;;;;;5073539;28;20060;-74
2022/08/02 09:56:55;;;;;;;4.57;1.80;;;25.30;85.80;;;;;;5073146;28;20055;-74
2022/08/02 09:59:23;;;;;;;5.45;1.92;;;25.60;85.10;;;;;;5073408;28;20036;-74
2022/08/02 10:01:50;;;;;;;5.97;2.28;;;25.70;83.40;;;;;;5073000;28;20040;-74
2022/08/02 10:04:19;;;;;;;6.13;2.20;;;25.90;82.70;;;;;;5073329;28;20047;-74
2022/08/02 10:06:45;;;;;;;7.95;1.92;;;25.90;82.20;;;;;;5072964;28;20107;-74
2022/08/02 10:09:12;;;;;;;6.43;2.28;;;25.90;82.70;;;;;;5073210;28;20044;-74
2022/08/02 10:11:38;;;;;;;23.77;2.97;;;26.10;88.20;;;;;;5072898;28;20086;-74
2022/08/02 10:14:08;;;;;;;6.05;2.50;;;26.10;83.20;;;;;;5072881;28;20036;-73
2022/08/02 10:16:38;;;;;;;7.22;2.72;;;26.10;85.60;;;;;;5072826;28;20044;-74
2022/08/02 10:19:04;;;;;;;6.28;2.83;;;26.20;86.80;;;;;;5072911;28;20044;-74
2022/08/02 10:21:43;;;;;;;5.30;2.55;;;26.10;82.30;;;;;;5055935;28;20063;-74
2022/08/02 10:24:15;;;;;;;8.82;3.03;;;26.10;82.20;;;;;;5056277;28;20037;-74
2022/08/02 10:26:43;;;;;;;10.30;2.30;;;26.00;90.10;;;;;;5072570;28;20048;-74
2022/08/02 10:29:14;;;;;;;8.75;2.65;;;26.10;91.10;;;;;;5072582;28;20519;-74
2022/08/02 10:31:42;;;;;;;7.80;2.70;;;26.20;90.60;;;;;;5072892;28;20056;-74
2022/08/02 10:34:13;;;;;;;8.05;3.00;;;26.30;91.80;;;;;;5072483;28;20037;-74
2022/08/02 10:36:40;;;;;;;17.15;3.17;;;26.50;92.40;;;;;;5055766;28;20048;-74
2022/08/02 10:39:07;;;;;;;7.50;2.42;;;26.70;90.80;;;;;;5072422;28;20049;-73
2022/08/02 10:41:42;;;;;;;6.90;2.50;;;26.80;90.30;;;;;;5055664;28;20548;-73
2022/08/02 10:44:08;;;;;;;8.65;2.50;;;27.00;87.90;;;;;;5072556;28;20044;-73
2022/08/02 10:46:35;;;;;;;8.43;2.42;;;27.10;88.50;;;;;;5055578;28;20378;-74
2022/08/02 10:49:08;;;;;;;4.78;2.30;;;27.20;86.20;;;;;;5072191;28;20430;-74
2022/08/02 10:51:58;;;;;;;6.18;2.80;;;27.30;81.90;;;;;;5072272;28;20044;-74
2022/08/02 10:54:31;;;;;;;6.32;2.50;;;27.40;80.20;;;;;;5072467;28;20397;-74
2022/08/02 10:56:59;;;;;;;4.55;2.30;;;27.70;84.80;;;;;;5055528;28;20048;-74
2022/08/02 10:59:27;;;;;;;9.35;2.75;;;27.90;78.60;;;;;;5072097;28;20048;-71
2022/08/02 11:02:00;;;;;;;6.43;2.40;;;27.70;77.20;;;;;;5055313;28;20535;-71
2022/08/02 11:04:46;;;;;;;5.15;2.45;;;27.50;75.80;;;;;;5072352;28;20048;-73
2022/08/02 11:07:29;;;;;;;4.78;2.00;;;27.50;78.40;;;;;;5064582;28;20059;-73
2022/08/02 11:09:55;;;;;;;4.63;2.45;;;27.60;80.60;;;;;;5071949;28;20048;-72
2022/08/02 11:12:21;;;;;;;10.70;3.03;;;27.80;81.80;;;;;;5071912;28;20084;-72
2022/08/02 11:15:03;;;;;;;3.90;1.88;;;27.90;76.80;;;;;;5072040;28;20089;-72
2022/08/02 11:17:52;;;;;;;6.35;2.17;;;28.20;80.60;;;;;;5071706;28;20041;-73
2022/08/02 11:20:19;;;;;;;8.02;3.35;;;28.30;78.40;;;;;;5055017;28;20048;-73
2022/08/02 11:22:46;;;;;;;5.32;2.83;;;28.40;76.00;;;;;;5071861;28;20425;-73
2022/08/02 11:25:21;;;;;;;5.10;2.40;;;28.40;76.20;;;;;;5071766;28;20036;-73
2022/08/02 11:27:51;;;;;;;8.73;2.90;;;28.40;72.70;;;;;;5071982;28;20086;-73
2022/08/02 11:30:18;;;;;;;4.28;2.47;;;28.20;73.90;;;;;;5071984;28;20409;-73
2022/08/02 11:32:45;;;;;;;9.18;2.17;;;28.10;75.30;;;;;;5071715;28;20068;-73
2022/08/02 11:35:10;;;;;;;4.72;2.20;;;28.20;78.00;;;;;;5071642;28;20044;-73
2022/08/02 11:37:41;;;;;;;3.28;2.35;;;28.30;76.60;;;;;;5071658;28;20055;-73
2022/08/02 11:40:17;;;;;;;7.03;2.08;;;28.30;73.50;;;;;;5071707;28;20105;-73
2022/08/02 11:42:49;;;;;;;6.85;2.00;;;28.30;77.00;;;;;;5071662;28;20047;-73
2022/08/02 11:45:15;;;;;;;;;;;28.30;75.40;;;;;;5072076;28;20108;-72
2022/08/02 11:47:49;;;;;;;3.97;1.45;;;28.40;73.90;;;;;;5071629;28;19960;-71
2022/08/02 11:50:16;;;;;;;5.70;1.80;;;28.50;71.20;;;;;;5071595;28;20045;-71
2022/08/02 11:52:42;;;;;;;5.18;2.13;;;28.60;68.90;;;;;;5071905;28;20041;-71
2022/08/02 11:55:09;;;;;;;4.40;1.90;;;28.50;67.70;;;;;;5071447;28;20048;-71
2022/08/02 11:57:36;;;;;;;5.18;2.05;;;28.40;67.70;;;;;;5071537;28;20040;-72
2022/08/02 12:00:04;;;;;;;4.03;1.70;;;28.30;69.40;;;;;;5071442;28;20060;-72
2022/08/02 12:02:31;;;;;;;4.78;2.30;;;28.30;70.20;;;;;;5071315;28;20047;-71
2022/08/02 12:05:03;;;;;;;5.18;2.40;;;28.30;68.20;;;;;;5071276;28;20059;-72
2022/08/02 12:07:35;;;;;;;4.32;1.60;;;28.50;69.70;;;;;;5071393;28;20047;-71
2022/08/02 12:10:07;;;;;;;4.03;1.60;;;28.50;68.60;;;;;;5071612;28;20032;-72
2022/08/02 12:13:05;;;;;;;3.13;2.00;;;28.50;67.40;;;;;;5071655;28;20059;-72
2022/08/02 12:15:40;;;;;;;5.15;2.67;;;28.40;67.70;;;;;;5033843;28;20061;-72
2022/08/02 12:21:01;;;;;;;5.75;2.05;;;28.20;70.20;;;;;;5033567;28;20529;-72
2022/08/02 12:23:27;;;;;;;4.40;2.20;;;28.10;69.60;;;;;;5033820;28;20052;-72
2022/08/02 12:26:03;;;;;;;4.05;1.70;;;28.20;70.10;;;;;;5033680;28;20087;-72
2022/08/02 12:28:34;;;;;;;4.78;2.13;;;28.40;72.00;;;;;;5033933;28;20047;-72
2022/08/02 12:31:00;;;;;;;4.72;2.25;;;28.70;72.80;;;;;;5054075;28;20091;-72
2022/08/02 12:33:45;;;;;;;7.97;2.70;;;28.80;72.60;;;;;;5037583;28;20095;-72
2022/08/02 12:36:18;;;;;;;4.80;2.53;;;28.80;68.40;;;;;;5020710;28;20040;-72
2022/08/02 12:38:54;;;;;;;9.77;2.97;;;28.60;68.80;;;;;;5037387;28;20096;-72
2022/08/02 12:41:20;;;;;;;4.57;2.63;;;28.40;67.10;;;;;;5037041;28;20052;-72
2022/08/02 12:43:46;;;;;;;6.95;3.65;;;28.20;70.00;;;;;;5037039;28;20060;-72
2022/08/02 12:46:20;;;;;;;7.82;2.53;;;28.10;70.20;;;;;;5036953;28;20044;-72
2022/08/02 12:48:46;;;;;;;7.72;3.60;;;28.00;72.40;;;;;;5036962;28;20123;-72
2022/08/02 12:51:32;;;;;;;5.20;3.00;;;27.80;73.90;;;;;;5056046;28;20104;-72
2022/08/02 12:54:22;;;;;;;10.85;3.55;;;27.70;75.00;;;;;;5057795;28;20532;-72
2022/08/02 12:56:48;;;;;;;8.43;3.13;;;27.50;75.50;;;;;;5074598;28;20063;-72